Time;durP1;ratioP1;P1;durP2;ratioP2;P2;SDS_P1;SDS_P2;PMS_P1;PMS_P2;Temp;Humidity;BMP_temperature;BMP_pressure;BME280_temperature;BME280_humidity;BME280_pressure;Samples;Min_cycle;Max_cycle;Signal;HPM_P1;HPM_P2
2021/09/28 00:00:47;;;;;;;9.32;2.97;;;12.00;99.90;;;;;;5034566;28;20386;-53
2021/09/28 00:03:12;;;;;;;7.18;3.47;;;12.00;99.90;;;;;;5032980;28;20489;-53
2021/09/28 00:05:38;;;;;;;8.40;3.40;;;12.00;99.90;;;;;;4997895;28;20041;-54
2021/09/28 00:08:05;;;;;;;8.95;3.28;;;11.90;99.90;;;;;;5029717;28;20490;-57
2021/09/28 00:10:31;;;;;;;9.27;3.78;;;11.90;99.90;;;;;;5034579;28;20039;-54
2021/09/28 00:12:57;;;;;;;7.07;3.33;;;11.90;99.90;;;;;;5031080;28;20041;-54
2021/09/28 00:15:23;;;;;;;8.48;3.10;;;11.90;99.90;;;;;;5004587;28;20034;-54
2021/09/28 00:17:49;;;;;;;8.57;3.45;;;11.90;99.90;;;;;;4980506;28;20457;-51
2021/09/28 00:20:15;;;;;;;8.75;3.13;;;11.80;99.90;;;;;;5037545;28;20527;-54
2021/09/28 00:22:41;;;;;;;7.72;3.60;;;11.80;99.90;;;;;;5035196;28;20033;-55
2021/09/28 00:25:10;;;;;;;9.20;3.90;;;11.80;99.90;;;;;;5001472;28;20099;-52
2021/09/28 00:27:36;;;;;;;10.32;3.80;;;11.80;99.90;;;;;;5033950;28;20549;-54
2021/09/28 00:30:03;;;;;;;7.35;3.88;;;11.80;99.90;;;;;;5038398;28;20116;-52
2021/09/28 00:32:28;;;;;;;8.85;4.05;;;11.70;99.90;;;;;;5039597;28;20041;-56
2021/09/28 00:34:54;;;;;;;7.40;3.75;;;11.70;99.90;;;;;;5028302;28;20079;-50
2021/09/28 00:37:20;;;;;;;7.93;4.57;;;11.70;99.90;;;;;;5032908;28;20029;-54
2021/09/28 00:39:46;;;;;;;10.98;3.95;;;11.70;99.90;;;;;;4994528;28;21296;-54
2021/09/28 00:42:12;;;;;;;7.85;3.97;;;11.70;99.90;;;;;;5014589;28;20405;-54
2021/09/28 00:44:44;;;;;;;9.95;4.40;;;11.70;99.90;;;;;;4967194;28;20045;-53
2021/09/28 00:47:11;;;;;;;10.00;4.40;;;11.70;99.90;;;;;;5035487;28;20037;-53
2021/09/28 00:49:42;;;;;;;9.27;4.10;;;11.70;99.90;;;;;;5000322;28;20038;-52
2021/09/28 00:52:11;;;;;;;10.13;4.45;;;11.60;99.90;;;;;;5013200;28;20030;-54
2021/09/28 00:54:38;;;;;;;5.78;4.18;;;11.60;99.90;;;;;;5015426;28;20083;-54
2021/09/28 00:57:08;;;;;;;10.75;4.25;;;11.60;99.90;;;;;;5030901;28;20533;-54
2021/09/28 00:59:39;;;;;;;7.97;4.43;;;11.60;99.90;;;;;;5033322;28;20026;-54
2021/09/28 01:02:06;;;;;;;9.25;4.00;;;11.60;99.90;;;;;;5033342;28;20539;-54
2021/09/28 01:04:31;;;;;;;7.82;3.90;;;11.60;99.90;;;;;;5007444;28;20041;-54
2021/09/28 01:07:03;;;;;;;7.85;4.53;;;11.50;99.90;;;;;;5017552;28;20056;-52
2021/09/28 01:09:29;;;;;;;13.35;4.50;;;11.60;99.90;;;;;;5038680;28;20045;-54
2021/09/28 01:11:54;;;;;;;14.10;4.90;;;11.50;99.90;;;;;;5030613;28;20128;-54
2021/09/28 01:14:20;;;;;;;10.48;4.63;;;11.50;99.90;;;;;;5032758;28;20112;-54
2021/09/28 01:16:46;;;;;;;11.25;4.80;;;11.50;99.90;;;;;;5015739;28;20067;-54
2021/09/28 01:19:12;;;;;;;8.57;4.65;;;11.50;99.90;;;;;;5007553;28;20033;-54
2021/09/28 01:21:38;;;;;;;8.63;4.72;;;11.50;99.90;;;;;;5035444;28;20030;-56
2021/09/28 01:24:05;;;;;;;16.63;4.60;;;11.40;99.90;;;;;;5037053;28;20041;-54
2021/09/28 01:26:31;;;;;;;9.80;4.47;;;11.40;99.90;;;;;;5030576;28;20036;-53
2021/09/28 01:29:03;;;;;;;10.43;4.93;;;11.40;99.90;;;;;;5027204;28;20132;-56
2021/09/28 01:31:29;;;;;;;11.32;4.50;;;11.40;99.90;;;;;;4986866;28;20120;-55
2021/09/28 01:33:55;;;;;;;11.95;5.97;;;11.30;99.90;;;;;;5034644;28;20452;-54
2021/09/28 01:36:21;;;;;;;8.82;4.78;;;11.30;99.90;;;;;;5028607;28;20087;-54
2021/09/28 01:38:48;;;;;;;13.43;5.45;;;11.30;99.90;;;;;;5006800;28;20124;-52
2021/09/28 01:41:15;;;;;;;11.82;5.10;;;11.30;99.90;;;;;;5029908;28;20065;-53
2021/09/28 01:43:41;;;;;;;11.38;5.10;;;11.30;99.90;;;;;;5013297;28;20044;-51
2021/09/28 01:46:07;;;;;;;12.32;5.22;;;11.20;99.90;;;;;;5034310;28;20026;-53
2021/09/28 01:48:45;;;;;;;9.70;5.13;;;11.20;99.90;;;;;;5005951;28;20049;-55
2021/09/28 01:51:10;;;;;;;11.00;5.63;;;11.20;99.90;;;;;;4996643;28;20324;-53
2021/09/28 01:53:37;;;;;;;11.63;5.55;;;11.20;99.90;;;;;;5037575;28;20071;-52
2021/09/28 01:56:03;;;;;;;11.80;5.15;;;11.20;99.90;;;;;;5015077;28;20044;-53
2021/09/28 01:58:29;;;;;;;13.68;5.40;;;11.20;99.90;;;;;;5002613;28;20077;-55
2021/09/28 02:00:54;;;;;;;15.27;6.15;;;11.20;99.90;;;;;;5033047;28;20425;-50
2021/09/28 02:03:20;;;;;;;11.73;6.13;;;11.10;99.90;;;;;;4995108;28;20124;-53
2021/09/28 02:05:46;;;;;;;14.93;5.50;;;11.10;99.90;;;;;;5033061;28;20044;-53
2021/09/28 02:08:11;;;;;;;14.48;6.13;;;11.10;99.90;;;;;;5012207;28;20030;-53
2021/09/28 02:10:37;;;;;;;12.35;5.85;;;11.10;99.90;;;;;;4995529;28;20041;-55
2021/09/28 02:13:03;;;;;;;15.43;5.95;;;11.10;99.90;;;;;;5028596;28;20037;-56
2021/09/28 02:15:29;;;;;;;12.13;5.70;;;11.10;99.90;;;;;;5013342;28;20068;-50
2021/09/28 02:17:54;;;;;;;11.18;6.32;;;11.10;99.90;;;;;;5034805;28;20404;-54
2021/09/28 02:20:20;;;;;;;13.38;6.53;;;11.10;99.90;;;;;;5031463;28;20041;-53
2021/09/28 02:22:45;;;;;;;14.57;6.55;;;11.10;99.90;;;;;;5031021;28;20112;-54
2021/09/28 02:25:13;;;;;;;13.32;5.78;;;11.10;99.90;;;;;;5030905;28;20478;-52
2021/09/28 02:27:42;;;;;;;12.85;5.80;;;11.10;99.90;;;;;;5032356;28;20498;-55
2021/09/28 02:30:08;;;;;;;15.60;6.20;;;11.10;99.90;;;;;;5033838;28;20033;-55
2021/09/28 02:32:34;;;;;;;11.38;6.20;;;11.10;99.90;;;;;;5031925;28;20128;-54
2021/09/28 02:35:00;;;;;;;8.82;5.95;;;11.10;99.90;;;;;;5031319;28;20069;-55
2021/09/28 02:37:25;;;;;;;16.45;6.50;;;11.10;99.90;;;;;;5012839;28;20039;-56
2021/09/28 02:39:51;;;;;;;13.90;6.60;;;11.10;99.90;;;;;;5030529;28;20029;-56
2021/09/28 02:42:16;;;;;;;11.95;6.28;;;11.00;99.90;;;;;;5031720;28;20073;-55
2021/09/28 02:44:42;;;;;;;13.52;6.15;;;11.10;99.90;;;;;;5017183;28;20037;-55
2021/09/28 02:47:08;;;;;;;12.13;6.13;;;11.00;99.90;;;;;;5033713;28;20510;-56
2021/09/28 02:49:34;;;;;;;11.75;7.10;;;11.00;99.90;;;;;;4995049;28;20045;-56
2021/09/28 02:51:59;;;;;;;15.65;6.13;;;11.00;99.90;;;;;;5029783;28;20037;-55
2021/09/28 02:54:26;;;;;;;16.00;6.35;;;11.00;99.90;;;;;;5027094;28;20040;-54
2021/09/28 02:56:52;;;;;;;16.60;6.32;;;11.00;99.90;;;;;;5027513;28;20033;-55
2021/09/28 02:59:18;;;;;;;11.95;6.63;;;11.00;99.90;;;;;;5027488;28;20463;-55
2021/09/28 03:01:43;;;;;;;12.52;6.32;;;11.00;99.90;;;;;;5024026;28;20116;-55
2021/09/28 03:04:09;;;;;;;13.32;6.43;;;11.00;99.90;;;;;;5028270;28;20409;-54
2021/09/28 03:06:34;;;;;;;16.30;7.47;;;11.00;99.90;;;;;;5032053;28;20047;-55
2021/09/28 03:09:00;;;;;;;18.30;6.68;;;11.00;99.90;;;;;;5028116;28;20051;-53
2021/09/28 03:11:27;;;;;;;13.02;6.65;;;11.00;99.90;;;;;;4997591;28;20129;-55
2021/09/28 03:13:55;;;;;;;15.00;6.57;;;11.00;99.90;;;;;;5031940;28;20157;-55
2021/09/28 03:16:22;;;;;;;10.82;5.93;;;11.00;99.90;;;;;;4998178;28;20131;-54
2021/09/28 03:18:48;;;;;;;14.90;6.50;;;10.90;99.90;;;;;;5029092;28;20029;-55
2021/09/28 03:21:16;;;;;;;14.93;6.30;;;10.90;99.90;;;;;;5025081;28;20041;-55
2021/09/28 03:23:42;;;;;;;13.65;7.47;;;10.90;99.90;;;;;;4994381;28;20037;-54
2021/09/28 03:26:07;;;;;;;13.32;6.50;;;10.90;99.90;;;;;;5033114;28;20548;-54
2021/09/28 03:28:33;;;;;;;15.18;6.68;;;10.80;99.90;;;;;;5027189;28;20118;-56
2021/09/28 03:31:00;;;;;;;15.50;6.93;;;10.90;99.90;;;;;;5035250;28;20056;-55
2021/09/28 03:33:27;;;;;;;13.90;6.32;;;10.90;99.90;;;;;;5005141;28;20116;-53
2021/09/28 03:35:53;;;;;;;17.30;6.53;;;10.90;99.90;;;;;;5031821;28;20083;-55
2021/09/28 03:38:19;;;;;;;17.45;7.25;;;10.90;99.90;;;;;;5025437;28;20037;-55
2021/09/28 03:40:45;;;;;;;12.63;6.57;;;10.80;99.90;;;;;;5034854;28;20045;-55
2021/09/28 03:43:11;;;;;;;16.75;7.30;;;10.90;99.90;;;;;;5028052;28;20046;-55
2021/09/28 03:45:37;;;;;;;15.38;7.10;;;10.90;99.90;;;;;;5025879;28;20393;-56
2021/09/28 03:48:04;;;;;;;15.63;6.68;;;10.90;99.90;;;;;;5028468;28;20037;-55
2021/09/28 03:50:30;;;;;;;14.30;6.55;;;10.90;99.90;;;;;;4995988;28;20038;-55
2021/09/28 03:52:55;;;;;;;16.88;7.65;;;10.90;99.90;;;;;;5028234;28;20461;-55
2021/09/28 03:55:21;;;;;;;18.70;7.00;;;10.90;99.90;;;;;;5030707;28;20068;-55
2021/09/28 03:57:48;;;;;;;14.82;7.57;;;10.90;99.90;;;;;;5028772;28;20030;-52
2021/09/28 04:00:16;;;;;;;15.40;7.20;;;10.90;99.90;;;;;;5028849;28;20106;-55
2021/09/28 04:02:42;;;;;;;17.13;7.10;;;11.00;99.90;;;;;;4995378;28;20103;-55
2021/09/28 04:05:08;;;;;;;15.27;6.93;;;10.90;99.90;;;;;;5028673;28;20041;-55
2021/09/28 04:07:35;;;;;;;17.23;7.47;;;11.00;99.90;;;;;;4995382;28;20034;-55
2021/09/28 04:10:06;;;;;;;13.95;7.18;;;11.00;99.90;;;;;;5025716;28;20057;-52
2021/09/28 04:12:33;;;;;;;19.95;7.55;;;11.00;99.90;;;;;;5013003;28;20042;-55
2021/09/28 04:15:00;;;;;;;18.05;6.95;;;11.00;99.90;;;;;;5018140;28;20037;-55
2021/09/28 04:17:26;;;;;;;15.95;7.18;;;10.90;99.90;;;;;;5030888;28;20029;-53
2021/09/28 04:19:53;;;;;;;15.68;7.00;;;10.90;99.90;;;;;;5029433;28;20061;-52
2021/09/28 04:22:20;;;;;;;11.85;7.43;;;11.00;99.90;;;;;;5017332;28;20051;-54
2021/09/28 04:24:46;;;;;;;22.83;8.18;;;11.00;99.90;;;;;;5028792;28;20045;-53
2021/09/28 04:27:11;;;;;;;20.15;8.65;;;11.00;99.90;;;;;;5015633;28;20041;-55
2021/09/28 04:29:39;;;;;;;19.05;8.02;;;11.00;99.90;;;;;;5031801;28;20034;-54
2021/09/28 04:32:05;;;;;;;20.30;7.78;;;11.00;99.90;;;;;;5008622;28;20049;-54
2021/09/28 04:34:31;;;;;;;18.33;7.72;;;11.00;99.90;;;;;;5023013;28;20419;-54
2021/09/28 04:36:56;;;;;;;17.55;7.43;;;11.00;99.90;;;;;;5032629;28;20041;-55
2021/09/28 04:39:23;;;;;;;17.67;7.95;;;11.00;99.90;;;;;;5031683;28;20037;-54
2021/09/28 04:41:50;;;;;;;17.33;8.27;;;11.00;99.90;;;;;;4999926;28;20034;-56
2021/09/28 04:44:17;;;;;;;22.77;8.88;;;11.00;99.90;;;;;;5022854;28;20083;-55
2021/09/28 04:46:44;;;;;;;19.15;8.60;;;11.00;99.90;;;;;;5019887;28;20045;-55
2021/09/28 04:49:10;;;;;;;19.88;9.02;;;11.10;99.90;;;;;;5014962;28;20034;-56
2021/09/28 04:51:36;;;;;;;19.60;9.10;;;11.10;99.90;;;;;;5032760;28;20045;-56
2021/09/28 04:54:02;;;;;;;20.73;9.13;;;11.10;99.90;;;;;;5029494;28;20045;-56
2021/09/28 04:56:28;;;;;;;24.92;9.35;;;11.10;99.90;;;;;;5013185;28;20497;-56
2021/09/28 04:58:53;;;;;;;18.95;9.10;;;11.10;99.90;;;;;;5032211;28;20038;-55
2021/09/28 05:01:19;;;;;;;21.02;9.50;;;11.20;99.90;;;;;;5032104;28;20430;-54
2021/09/28 05:03:47;;;;;;;18.30;9.32;;;11.20;99.90;;;;;;5030272;28;20128;-50
2021/09/28 05:06:13;;;;;;;24.73;9.18;;;11.20;99.90;;;;;;4995369;28;20045;-51
2021/09/28 05:08:39;;;;;;;19.88;9.85;;;11.20;99.90;;;;;;5030284;28;20593;-51
2021/09/28 05:11:09;;;;;;;26.38;10.20;;;11.20;99.90;;;;;;5015325;28;20128;-54
2021/09/28 05:13:34;;;;;;;24.23;10.32;;;11.20;99.90;;;;;;5029044;28;20048;-55
2021/09/28 05:16:00;;;;;;;26.40;10.32;;;11.20;99.90;;;;;;5015457;28;20034;-55
2021/09/28 05:18:25;;;;;;;21.15;9.02;;;11.20;99.90;;;;;;5033027;28;20029;-52
2021/09/28 05:20:51;;;;;;;22.33;9.98;;;11.20;99.90;;;;;;5030433;28;20079;-54
2021/09/28 05:23:17;;;;;;;20.50;9.82;;;11.20;99.90;;;;;;5031104;28;20378;-54
2021/09/28 05:25:42;;;;;;;23.05;9.85;;;11.20;99.90;;;;;;5029470;28;20046;-53
2021/09/28 05:28:09;;;;;;;23.40;9.77;;;11.20;99.90;;;;;;5039502;28;20037;-53
2021/09/28 05:30:36;;;;;;;18.38;9.80;;;11.20;99.90;;;;;;5022606;28;20037;-55
2021/09/28 05:33:03;;;;;;;24.75;9.65;;;11.20;99.90;;;;;;5035730;28;20512;-54
2021/09/28 05:35:30;;;;;;;22.85;10.85;;;11.20;99.90;;;;;;5015765;28;20509;-55
2021/09/28 05:37:56;;;;;;;18.63;9.65;;;11.10;99.90;;;;;;5012521;28;20486;-54
2021/09/28 05:40:21;;;;;;;19.77;9.77;;;11.10;99.90;;;;;;5031978;28;20124;-53
2021/09/28 05:42:47;;;;;;;24.95;10.30;;;11.00;99.90;;;;;;5032456;28;20107;-53
2021/09/28 05:45:12;;;;;;;22.30;9.95;;;11.00;99.90;;;;;;5025499;28;20078;-54
2021/09/28 05:47:38;;;;;;;20.73;9.43;;;11.00;99.90;;;;;;5027301;28;20033;-55
2021/09/28 05:50:06;;;;;;;21.63;10.57;;;10.90;99.90;;;;;;5035464;28;20042;-55
2021/09/28 05:52:32;;;;;;;19.65;9.63;;;11.00;99.90;;;;;;5028799;28;20045;-54
2021/09/28 05:55:00;;;;;;;19.88;9.93;;;10.90;99.90;;;;;;5030030;28;20406;-53
2021/09/28 05:57:26;;;;;;;20.98;9.43;;;10.90;99.90;;;;;;5031550;28;20034;-54
2021/09/28 05:59:52;;;;;;;22.67;11.07;;;10.90;99.90;;;;;;5026766;28;20099;-53
2021/09/28 06:02:18;;;;;;;20.58;9.55;;;10.90;99.90;;;;;;5013272;28;20075;-52
2021/09/28 06:04:44;;;;;;;19.27;10.20;;;10.80;99.90;;;;;;5018750;28;20052;-51
2021/09/28 06:07:10;;;;;;;21.40;10.50;;;10.90;99.90;;;;;;5014455;28;20103;-53
2021/09/28 06:09:39;;;;;;;24.38;10.05;;;10.80;99.90;;;;;;5032458;28;20037;-55
2021/09/28 06:12:08;;;;;;;21.30;11.23;;;10.90;99.90;;;;;;5022590;28;20091;-55
2021/09/28 06:14:35;;;;;;;22.75;9.77;;;10.80;99.90;;;;;;5023351;28;20051;-54
2021/09/28 06:17:01;;;;;;;19.30;10.30;;;10.80;99.90;;;;;;5031219;28;20034;-53
2021/09/28 06:19:28;;;;;;;24.00;9.88;;;10.90;99.90;;;;;;5040545;28;20377;-51
2021/09/28 06:21:55;;;;;;;22.63;10.32;;;10.80;99.90;;;;;;5005821;28;20117;-53
2021/09/28 06:24:21;;;;;;;17.42;9.60;;;10.80;99.90;;;;;;5005933;28;20045;-53
2021/09/28 06:26:47;;;;;;;20.75;10.55;;;10.80;99.90;;;;;;4967475;28;20034;-55
2021/09/28 06:29:13;;;;;;;24.33;10.50;;;10.80;99.90;;;;;;5024249;28;20497;-52
2021/09/28 06:31:41;;;;;;;16.85;10.48;;;10.80;99.90;;;;;;5027688;28;20113;-54
2021/09/28 06:34:08;;;;;;;23.55;9.88;;;10.80;99.90;;;;;;5024980;28;20505;-52
2021/09/28 06:36:33;;;;;;;25.02;10.57;;;10.80;99.90;;;;;;5022716;28;20042;-52
2021/09/28 06:38:59;;;;;;;23.08;10.35;;;10.90;99.90;;;;;;5009526;28;20375;-54
2021/09/28 06:41:27;;;;;;;24.48;10.52;;;10.90;99.90;;;;;;5014698;28;20033;-55
2021/09/28 06:43:53;;;;;;;18.75;10.15;;;11.00;99.90;;;;;;5020729;28;20050;-55
2021/09/28 06:46:20;;;;;;;21.30;10.18;;;11.00;99.90;;;;;;5007429;28;20037;-54
2021/09/28 06:48:46;;;;;;;23.75;9.32;;;11.00;99.90;;;;;;5020187;28;20555;-56
2021/09/28 06:51:12;;;;;;;20.48;10.07;;;11.00;99.90;;;;;;5021126;28;20033;-55
2021/09/28 06:53:39;;;;;;;23.67;10.60;;;11.00;99.90;;;;;;5009534;28;20458;-53
2021/09/28 06:56:05;;;;;;;21.05;9.55;;;11.10;99.90;;;;;;5027727;28;20032;-54
2021/09/28 06:58:31;;;;;;;24.33;10.63;;;11.10;99.90;;;;;;5004303;28;20033;-55
2021/09/28 07:00:57;;;;;;;19.17;10.15;;;11.10;99.90;;;;;;5025923;28;20041;-55
2021/09/28 07:03:23;;;;;;;18.35;10.30;;;11.10;99.90;;;;;;5024010;28;20044;-55
2021/09/28 07:05:49;;;;;;;21.83;10.60;;;11.20;99.90;;;;;;4989583;28;20046;-56
2021/09/28 07:08:15;;;;;;;22.85;10.35;;;11.20;99.90;;;;;;5019181;28;20557;-55
2021/09/28 07:10:41;;;;;;;19.58;9.25;;;11.20;99.90;;;;;;5022823;28;20533;-55
2021/09/28 07:13:07;;;;;;;21.88;10.10;;;11.30;99.90;;;;;;5023837;28;20046;-53
2021/09/28 07:15:34;;;;;;;21.45;9.13;;;11.30;99.90;;;;;;5020226;28;20044;-56
2021/09/28 07:18:02;;;;;;;20.17;9.35;;;11.40;99.90;;;;;;5004233;28;20036;-55
2021/09/28 07:20:28;;;;;;;23.10;9.57;;;11.40;99.90;;;;;;5005723;28;20494;-54
2021/09/28 07:22:54;;;;;;;18.85;9.43;;;11.50;99.90;;;;;;5011117;28;20057;-56
2021/09/28 07:25:20;;;;;;;23.45;9.52;;;11.50;99.90;;;;;;5019189;28;20041;-56
2021/09/28 07:27:46;;;;;;;19.60;9.40;;;11.60;99.90;;;;;;5021976;28;20457;-56
2021/09/28 07:30:12;;;;;;;20.92;9.23;;;11.70;99.90;;;;;;5022816;28;20057;-56
2021/09/28 07:32:38;;;;;;;20.15;9.57;;;11.80;99.90;;;;;;5020505;28;20034;-56
2021/09/28 07:35:05;;;;;;;22.67;8.77;;;11.90;99.90;;;;;;5023162;28;20406;-55
2021/09/28 07:37:33;;;;;;;20.52;8.55;;;12.00;99.90;;;;;;5019907;28;20034;-55
2021/09/28 07:40:00;;;;;;;18.88;8.82;;;12.10;99.90;;;;;;5026576;28;20493;-56
2021/09/28 07:42:28;;;;;;;16.50;7.95;;;12.20;99.90;;;;;;5022318;28;20045;-54
2021/09/28 07:44:56;;;;;;;16.58;7.43;;;12.30;99.90;;;;;;5026209;28;20052;-52
2021/09/28 07:47:22;;;;;;;20.77;7.93;;;12.40;99.90;;;;;;4984026;28;20405;-56
2021/09/28 07:49:48;;;;;;;16.10;7.28;;;12.60;99.90;;;;;;5027360;28;20033;-55
2021/09/28 07:52:14;;;;;;;16.70;6.90;;;12.70;99.90;;;;;;5022773;28;20044;-56
2021/09/28 07:54:40;;;;;;;17.95;7.10;;;12.70;99.90;;;;;;5009468;28;20413;-54
2021/09/28 07:57:08;;;;;;;20.00;6.80;;;12.80;99.90;;;;;;5023509;28;20040;-54
2021/09/28 07:59:34;;;;;;;17.27;7.40;;;12.90;99.90;;;;;;5022964;28;20045;-55
2021/09/28 08:02:02;;;;;;;17.83;6.88;;;12.90;99.90;;;;;;5022534;28;20037;-57
2021/09/28 08:04:28;;;;;;;20.05;6.35;;;13.00;99.90;;;;;;5017100;28;20118;-56
2021/09/28 08:06:55;;;;;;;17.70;6.72;;;13.20;99.90;;;;;;5018009;28;20131;-55
2021/09/28 08:09:21;;;;;;;17.08;5.88;;;13.30;99.90;;;;;;5036692;28;20596;-57
2021/09/28 08:11:48;;;;;;;18.20;6.65;;;13.30;99.90;;;;;;5027926;28;20060;-56
2021/09/28 08:14:14;;;;;;;18.65;6.57;;;13.40;99.90;;;;;;5010643;28;20107;-54
2021/09/28 08:16:40;;;;;;;21.85;6.35;;;13.50;99.90;;;;;;5011681;28;20034;-54
2021/09/28 08:19:06;;;;;;;17.92;5.93;;;13.60;99.90;;;;;;5009756;28;20030;-54
2021/09/28 08:21:32;;;;;;;18.65;6.38;;;13.60;99.90;;;;;;5035987;28;20045;-54
2021/09/28 08:23:58;;;;;;;19.70;5.72;;;13.70;99.90;;;;;;5041061;28;20037;-54
2021/09/28 08:29:09;;;;;;;18.05;5.53;;;13.90;99.90;;;;;;5023973;28;20092;-52
2021/09/28 08:31:46;;;;;;;13.75;5.28;;;14.00;99.90;;;;;;5034637;28;20091;-57
2021/09/28 08:34:13;;;;;;;17.80;5.95;;;14.10;99.80;;;;;;5026273;28;20056;-57
2021/09/28 08:36:40;;;;;;;18.95;5.50;;;14.20;99.70;;;;;;5030440;28;20038;-57
2021/09/28 08:39:09;;;;;;;19.58;5.47;;;14.20;99.60;;;;;;5040196;28;20034;-56
2021/09/28 08:41:39;;;;;;;17.55;5.70;;;14.30;99.40;;;;;;5027900;28;20056;-57
2021/09/28 08:44:05;;;;;;;13.73;5.15;;;14.40;99.20;;;;;;5021034;28;20048;-57
2021/09/28 08:46:30;;;;;;;18.25;5.32;;;14.40;98.90;;;;;;5029045;28;20033;-57
2021/09/28 08:48:56;;;;;;;16.27;5.15;;;14.50;98.80;;;;;;5036032;28;20040;-57
2021/09/28 08:51:22;;;;;;;18.15;5.15;;;14.50;98.60;;;;;;5008071;28;20037;-57
2021/09/28 08:53:50;;;;;;;13.77;5.05;;;14.50;98.60;;;;;;5017332;28;20080;-57
2021/09/28 08:56:17;;;;;;;18.38;5.47;;;14.60;98.50;;;;;;5016990;28;20040;-57
2021/09/28 08:59:02;;;;;;;18.23;5.35;;;14.70;98.80;;;;;;5018454;28;20071;-57
2021/09/28 09:01:29;;;;;;;16.50;5.35;;;14.80;98.70;;;;;;4987794;28;20069;-57
2021/09/28 09:03:55;;;;;;;15.77;5.15;;;14.90;98.80;;;;;;5027171;28;20124;-57
2021/09/28 09:06:34;;;;;;;15.25;4.57;;;15.00;98.30;;;;;;5027770;28;20455;-57
2021/09/28 09:09:05;;;;;;;16.77;4.80;;;15.10;98.10;;;;;;5034136;28;20041;-56
2021/09/28 09:11:55;;;;;;;20.40;5.53;;;15.20;98.10;;;;;;5026333;28;20044;-57
2021/09/28 09:14:23;;;;;;;16.17;5.30;;;15.30;97.70;;;;;;5019348;28;20092;-54
2021/09/28 09:16:55;;;;;;;14.98;5.15;;;15.40;97.50;;;;;;5023127;28;20119;-54
2021/09/28 09:19:27;;;;;;;14.45;4.82;;;15.50;97.70;;;;;;5028735;28;20120;-57
2021/09/28 09:21:59;;;;;;;16.95;4.55;;;15.60;97.60;;;;;;5012224;28;20045;-56
2021/09/28 09:24:47;;;;;;;14.93;4.65;;;15.70;97.30;;;;;;5026177;28;20045;-58
2021/09/28 09:27:32;;;;;;;11.75;5.05;;;15.70;97.20;;;;;;5019787;28;20053;-57
2021/09/28 09:30:20;;;;;;;15.88;4.82;;;15.80;97.20;;;;;;5026775;28;20041;-56
2021/09/28 09:32:51;;;;;;;13.05;4.88;;;15.90;96.70;;;;;;5025985;28;20041;-55
2021/09/28 09:35:22;;;;;;;16.45;4.53;;;15.90;96.50;;;;;;5030346;28;20026;-56
2021/09/28 09:37:48;;;;;;;13.77;3.92;;;16.00;96.40;;;;;;5022479;28;20061;-57
2021/09/28 09:40:30;;;;;;;18.52;4.68;;;16.00;96.00;;;;;;5032857;28;20029;-56
2021/09/28 09:42:56;;;;;;;19.13;4.25;;;16.10;95.80;;;;;;5037647;28;20045;-54
2021/09/28 09:45:23;;;;;;;19.42;4.93;;;16.10;95.60;;;;;;5025341;28;20511;-56
2021/09/28 09:47:49;;;;;;;12.52;4.82;;;16.20;95.50;;;;;;5022474;28;20045;-56
2021/09/28 09:50:18;;;;;;;16.27;4.35;;;16.30;95.30;;;;;;5009776;28;20408;-57
2021/09/28 09:52:56;;;;;;;16.20;4.68;;;16.30;94.70;;;;;;4997995;28;20044;-57
2021/09/28 09:55:28;;;;;;;14.85;4.15;;;16.30;94.30;;;;;;5036357;28;20037;-54
2021/09/28 09:57:55;;;;;;;16.75;4.65;;;16.40;93.90;;;;;;5002507;28;20505;-57
2021/09/28 10:00:22;;;;;;;24.40;4.93;;;16.40;94.40;;;;;;5030214;28;20033;-57
2021/09/28 10:02:49;;;;;;;15.98;4.85;;;16.50;94.40;;;;;;5028680;28;20413;-54
2021/09/28 10:05:20;;;;;;;9.70;3.70;;;16.50;94.20;;;;;;4993170;28;20371;-57
2021/09/28 10:07:49;;;;;;;16.83;4.15;;;16.50;94.30;;;;;;5024933;28;20080;-56
2021/09/28 10:10:16;;;;;;;15.05;4.00;;;16.50;93.80;;;;;;5029450;28;20140;-54
2021/09/28 10:12:46;;;;;;;18.17;3.80;;;16.50;93.40;;;;;;5029609;28;20042;-54
2021/09/28 10:15:17;;;;;;;15.18;3.90;;;16.60;93.40;;;;;;5021023;28;20043;-56
2021/09/28 10:17:44;;;;;;;14.77;3.78;;;16.60;93.80;;;;;;5032423;28;20065;-53
2021/09/28 10:20:22;;;;;;;18.20;3.70;;;16.70;93.90;;;;;;5036492;28;20116;-57
2021/09/28 10:22:49;;;;;;;13.68;3.55;;;16.80;94.00;;;;;;5033351;28;20071;-57
2021/09/28 10:25:30;;;;;;;13.05;3.75;;;16.90;93.60;;;;;;5029763;28;20048;-58
2021/09/28 10:28:08;;;;;;;10.88;2.95;;;17.00;93.20;;;;;;5012703;28;20033;-57
2021/09/28 10:30:38;;;;;;;14.30;3.20;;;17.10;93.20;;;;;;5029165;28;20029;-56
2021/09/28 10:33:27;;;;;;;10.65;2.70;;;17.20;92.80;;;;;;5031286;28;20116;-57
2021/09/28 10:36:11;;;;;;;15.63;3.08;;;17.20;91.40;;;;;;5023546;28;20095;-57
2021/09/28 10:38:41;;;;;;;13.93;2.97;;;17.20;92.40;;;;;;5029933;28;20043;-57
2021/09/28 10:41:08;;;;;;;15.13;3.40;;;17.30;91.40;;;;;;5031650;28;20075;-57
2021/09/28 10:43:34;;;;;;;18.20;3.30;;;17.30;91.60;;;;;;5008727;28;20041;-57
2021/09/28 10:46:04;;;;;;;11.38;2.92;;;17.30;91.60;;;;;;5011543;28;20037;-55
2021/09/28 10:48:35;;;;;;;10.80;3.13;;;17.30;91.50;;;;;;5027184;28;20803;-54
2021/09/28 10:51:07;;;;;;;9.60;2.38;;;17.30;90.60;;;;;;5006279;28;20045;-54
2021/09/28 10:53:40;;;;;;;12.52;2.80;;;17.30;90.90;;;;;;5009675;28;20060;-54
2021/09/28 10:56:08;;;;;;;13.38;3.33;;;17.30;90.90;;;;;;5023311;28;20060;-54
2021/09/28 10:58:50;;;;;;;17.83;2.75;;;17.40;91.00;;;;;;5020314;28;20045;-56
2021/09/28 11:01:16;;;;;;;12.73;3.20;;;17.50;91.20;;;;;;5020877;28;20065;-58
2021/09/28 11:03:56;;;;;;;11.75;2.72;;;17.50;91.10;;;;;;5019476;28;20087;-58
2021/09/28 11:06:44;;;;;;;10.00;2.53;;;17.70;90.60;;;;;;5017960;28;20034;-58
2021/09/28 11:09:11;;;;;;;13.32;3.22;;;17.80;91.20;;;;;;5026556;28;20073;-56
2021/09/28 11:11:39;;;;;;;13.23;2.85;;;17.80;90.30;;;;;;4994653;28;20029;-58
2021/09/28 11:14:06;;;;;;;14.52;2.47;;;17.80;89.90;;;;;;5012912;28;20033;-58
2021/09/28 11:16:39;;;;;;;10.43;2.60;;;17.80;89.70;;;;;;5030995;28;20489;-58
2021/09/28 11:19:05;;;;;;;12.05;2.60;;;17.80;87.20;;;;;;5025586;28;20033;-57
2021/09/28 11:21:31;;;;;;;13.73;2.97;;;17.80;88.60;;;;;;5009029;28;20048;-57
2021/09/28 11:23:57;;;;;;;11.98;2.70;;;17.80;88.00;;;;;;5000746;28;20497;-54
2021/09/28 11:26:32;;;;;;;12.88;2.38;;;17.80;87.40;;;;;;5016576;28;20518;-54
2021/09/28 11:29:02;;;;;;;13.30;2.80;;;17.80;86.70;;;;;;5023329;28;20088;-55
2021/09/28 11:31:32;;;;;;;12.35;2.38;;;17.80;86.80;;;;;;4992631;28;20507;-56
2021/09/28 11:34:00;;;;;;;10.95;2.55;;;17.90;87.70;;;;;;5023818;28;20210;-57
2021/09/28 11:36:31;;;;;;;14.05;2.53;;;17.90;86.80;;;;;;5034281;28;20052;-55
2021/09/28 11:38:57;;;;;;;10.52;2.35;;;17.90;86.70;;;;;;5011713;28;20058;-55
2021/09/28 11:41:23;;;;;;;11.20;2.30;;;18.00;86.20;;;;;;5035308;28;20041;-58
2021/09/28 11:43:54;;;;;;;8.45;2.05;;;18.00;85.10;;;;;;5026695;28;20075;-58
2021/09/28 11:46:21;;;;;;;13.57;2.75;;;18.00;85.30;;;;;;5023361;28;20038;-57
2021/09/28 11:49:00;;;;;;;14.18;2.40;;;18.00;86.10;;;;;;5019461;28;20126;-57
2021/09/28 11:51:34;;;;;;;9.23;2.10;;;18.10;85.90;;;;;;5013841;28;20485;-57
2021/09/28 11:54:18;;;;;;;9.40;2.03;;;18.10;85.40;;;;;;5032740;28;20044;-57
2021/09/28 11:56:46;;;;;;;12.98;2.50;;;18.20;85.60;;;;;;5031707;28;20029;-57
2021/09/28 11:59:19;;;;;;;13.15;2.17;;;18.20;84.50;;;;;;5033731;28;20485;-57
2021/09/28 12:01:53;;;;;;;13.15;2.10;;;18.30;84.50;;;;;;5033572;28;20029;-57
2021/09/28 12:07:00;;;;;;;9.32;2.10;;;18.30;83.00;;;;;;5035023;28;20041;-58
2021/09/28 12:09:34;;;;;;;8.38;2.35;;;18.20;83.40;;;;;;5016957;28;20179;-57
2021/09/28 12:12:11;;;;;;;8.98;1.90;;;18.30;83.20;;;;;;5038227;28;20038;-54
2021/09/28 12:14:39;;;;;;;14.95;2.53;;;18.30;83.60;;;;;;5034180;28;20042;-54
2021/09/28 12:17:13;;;;;;;10.27;2.33;;;18.40;83.00;;;;;;5035544;28;20029;-56
2021/09/28 12:19:49;;;;;;;9.63;2.28;;;18.40;80.70;;;;;;5033605;28;20033;-55
2021/09/28 12:22:43;;;;;;;11.65;2.70;;;18.40;82.10;;;;;;4995553;28;20623;-54
2021/09/28 12:25:41;;;;;;;9.98;2.13;;;18.40;82.40;;;;;;5028359;28;20030;-57
2021/09/28 12:28:09;;;;;;;9.60;2.40;;;18.40;82.90;;;;;;5021001;28;20046;-56
2021/09/28 12:30:54;;;;;;;7.72;1.80;;;18.50;82.90;;;;;;5032343;28;20056;-55
2021/09/28 12:33:20;;;;;;;11.52;2.03;;;18.50;80.20;;;;;;5009553;28;20050;-57
2021/09/28 12:35:54;;;;;;;10.60;2.25;;;18.50;81.10;;;;;;5032044;28;20041;-57
2021/09/28 12:38:21;;;;;;;10.07;2.22;;;18.40;81.20;;;;;;5031352;28;20069;-57
2021/09/28 12:40:46;;;;;;;8.48;1.88;;;18.40;81.20;;;;;;5034666;28;20034;-57
2021/09/28 12:43:15;;;;;;;12.13;2.17;;;18.40;79.90;;;;;;5034346;28;20041;-54
2021/09/28 12:45:42;;;;;;;8.77;1.90;;;18.40;79.90;;;;;;5014616;28;20046;-57
2021/09/28 12:48:10;;;;;;;9.13;2.20;;;18.40;80.70;;;;;;5030587;28;20046;-57